sensor_id;sensor_type;location;lat;lon;timestamp;pressure;altitude;pressure_sealevel;temperature;humidity
38253;BME280;24785;52.372;20.672;2023-04-23T00:05:38;100447.75;;;3.82;100.00
38253;BME280;24785;52.372;20.672;2023-04-23T00:15:39;100441.28;;;3.89;100.00
38253;BME280;24785;52.372;20.672;2023-04-23T00:25:40;100443.88;;;3.66;100.00
38253;BME280;24785;52.372;20.672;2023-04-23T00:35:41;100438.34;;;3.56;100.00
38253;BME280;24785;52.372;20.672;2023-04-23T00:45:42;100429.44;;;3.38;100.00
38253;BME280;24785;52.372;20.672;2023-04-23T00:55:43;100420.31;;;3.34;100.00
38253;BME280;24785;52.372;20.672;2023-04-23T01:05:44;100432.09;;;3.20;100.00
38253;BME280;24785;52.372;20.672;2023-04-23T01:15:45;100445.94;;;3.22;100.00
38253;BME280;24785;52.372;20.672;2023-04-23T01:25:46;100436.00;;;3.17;100.00
38253;BME280;24785;52.372;20.672;2023-04-23T01:35:48;100429.16;;;2.98;100.00
38253;BME280;24785;52.372;20.672;2023-04-23T01:45:50;100432.03;;;2.97;100.00
38253;BME280;24785;52.372;20.672;2023-04-23T01:55:53;100420.53;;;3.03;100.00
38253;BME280;24785;52.372;20.672;2023-04-23T02:05:55;100432.88;;;3.09;100.00
38253;BME280;24785;52.372;20.672;2023-04-23T02:15:56;100426.13;;;2.95;100.00
38253;BME280;24785;52.372;20.672;2023-04-23T02:25:57;100431.56;;;2.81;100.00
38253;BME280;24785;52.372;20.672;2023-04-23T02:35:57;100419.75;;;2.66;100.00
38253;BME280;24785;52.372;20.672;2023-04-23T02:45:58;100418.81;;;2.60;100.00
38253;BME280;24785;52.372;20.672;2023-04-23T02:55:59;100423.97;;;2.55;100.00
38253;BME280;24785;52.372;20.672;2023-04-23T03:06:01;100420.56;;;2.48;100.00
38253;BME280;24785;52.372;20.672;2023-04-23T03:16:02;100414.78;;;2.58;100.00
38253;BME280;24785;52.372;20.672;2023-04-23T03:26:03;100409.91;;;2.55;100.00
38253;BME280;24785;52.372;20.672;2023-04-23T03:36:04;100410.72;;;2.55;100.00
38253;BME280;24785;52.372;20.672;2023-04-23T03:46:05;100419.09;;;2.89;100.00
38253;BME280;24785;52.372;20.672;2023-04-23T03:56:06;100409.81;;;3.81;100.00
38253;BME280;24785;52.372;20.672;2023-04-23T04:06:07;100422.94;;;4.23;100.00
38253;BME280;24785;52.372;20.672;2023-04-23T04:16:08;100432.47;;;4.70;100.00
38253;BME280;24785;52.372;20.672;2023-04-23T04:26:09;100437.53;;;5.24;100.00
38253;BME280;24785;52.372;20.672;2023-04-23T04:36:10;100431.00;;;6.87;100.00
38253;BME280;24785;52.372;20.672;2023-04-23T04:46:13;100423.78;;;8.90;100.00
38253;BME280;24785;52.372;20.672;2023-04-23T04:56:15;100427.41;;;10.43;88.57
38253;BME280;24785;52.372;20.672;2023-04-23T05:06:15;100420.47;;;11.01;80.67
38253;BME280;24785;52.372;20.672;2023-04-23T05:16:17;100425.84;;;11.46;78.57
38253;BME280;24785;52.372;20.672;2023-04-23T05:26:18;100410.75;;;11.94;75.11
38253;BME280;24785;52.372;20.672;2023-04-23T05:36:20;100412.13;;;11.91;73.85
38253;BME280;24785;52.372;20.672;2023-04-23T05:46:21;100414.59;;;12.12;74.95
38253;BME280;24785;52.372;20.672;2023-04-23T05:56:22;100405.94;;;12.44;73.13
38253;BME280;24785;52.372;20.672;2023-04-23T06:06:23;100396.50;;;12.70;71.05
38253;BME280;24785;52.372;20.672;2023-04-23T06:16:24;100399.75;;;13.10;68.17
38253;BME280;24785;52.372;20.672;2023-04-23T06:26:25;100396.16;;;13.38;67.23
38253;BME280;24785;52.372;20.672;2023-04-23T06:36:26;100398.94;;;13.66;65.00
38253;BME280;24785;52.372;20.672;2023-04-23T06:46:27;100379.19;;;14.03;63.81
38253;BME280;24785;52.372;20.672;2023-04-23T06:56:27;100372.53;;;14.41;60.88
38253;BME280;24785;52.372;20.672;2023-04-23T07:06:28;100363.22;;;14.89;59.00
38253;BME280;24785;52.372;20.672;2023-04-23T07:16:29;100359.00;;;15.32;57.90
38253;BME280;24785;52.372;20.672;2023-04-23T07:26:34;100352.50;;;15.78;55.88
38253;BME280;24785;52.372;20.672;2023-04-23T07:36:35;100350.50;;;16.32;54.19
38253;BME280;24785;52.372;20.672;2023-04-23T07:46:36;100335.47;;;16.57;52.08
38253;BME280;24785;52.372;20.672;2023-04-23T07:56:37;100332.84;;;16.83;51.68
38253;BME280;24785;52.372;20.672;2023-04-23T08:06:37;100327.44;;;17.17;50.16
38253;BME280;24785;52.372;20.672;2023-04-23T08:16:39;100314.13;;;17.76;49.45
38253;BME280;24785;52.372;20.672;2023-04-23T08:26:39;100305.00;;;17.89;48.03
38253;BME280;24785;52.372;20.672;2023-04-23T08:36:40;100291.03;;;18.38;46.46
38253;BME280;24785;52.372;20.672;2023-04-23T08:46:43;100285.97;;;18.57;44.39
38253;BME280;24785;52.372;20.672;2023-04-23T08:56:45;100286.13;;;18.61;42.73
38253;BME280;24785;52.372;20.672;2023-04-23T09:06:46;100263.56;;;18.69;41.50
38253;BME280;24785;52.372;20.672;2023-04-23T09:16:49;100263.84;;;18.97;42.46
38253;BME280;24785;52.372;20.672;2023-04-23T09:26:51;100262.53;;;19.15;40.94
38253;BME280;24785;52.372;20.672;2023-04-23T09:36:52;100257.44;;;19.46;41.36
38253;BME280;24785;52.372;20.672;2023-04-23T09:46:53;100250.56;;;19.73;42.67
38253;BME280;24785;52.372;20.672;2023-04-23T09:56:54;100229.06;;;19.80;39.84
38253;BME280;24785;52.372;20.672;2023-04-23T10:07:02;100220.13;;;19.92;40.35
38253;BME280;24785;52.372;20.672;2023-04-23T10:17:04;100205.50;;;19.97;39.32
38253;BME280;24785;52.372;20.672;2023-04-23T10:27:10;100201.16;;;20.20;39.02
38253;BME280;24785;52.372;20.672;2023-04-23T10:37:13;100180.84;;;20.30;38.83
38253;BME280;24785;52.372;20.672;2023-04-23T10:47:16;100168.91;;;20.74;37.32
38253;BME280;24785;52.372;20.672;2023-04-23T10:57:17;100171.34;;;21.08;36.38
38253;BME280;24785;52.372;20.672;2023-04-23T11:07:19;100159.19;;;21.49;39.64
38253;BME280;24785;52.372;20.672;2023-04-23T11:17:57;100139.59;;;21.43;38.00
38253;BME280;24785;52.372;20.672;2023-04-23T11:27:45;100128.63;;;21.75;33.78
38253;BME280;24785;52.372;20.672;2023-04-23T11:37:47;100123.44;;;21.69;36.05
38253;BME280;24785;52.372;20.672;2023-04-23T11:47:49;100111.16;;;21.95;30.58
38253;BME280;24785;52.372;20.672;2023-04-23T11:57:52;100120.56;;;21.97;35.43
38253;BME280;24785;52.372;20.672;2023-04-23T12:07:54;100109.19;;;22.11;34.59
38253;BME280;24785;52.372;20.672;2023-04-23T12:18:09;100113.38;;;22.24;35.40
38253;BME280;24785;52.372;20.672;2023-04-23T12:28:10;100088.00;;;22.05;35.99
38253;BME280;24785;52.372;20.672;2023-04-23T12:38:27;100085.50;;;22.35;34.19
38253;BME280;24785;52.372;20.672;2023-04-23T12:48:29;100078.06;;;21.96;34.94
38253;BME280;24785;52.372;20.672;2023-04-23T12:58:30;100066.03;;;22.17;35.24
38253;BME280;24785;52.372;20.672;2023-04-23T13:08:31;100052.31;;;22.13;36.17
38253;BME280;24785;52.372;20.672;2023-04-23T13:18:31;100045.56;;;22.26;35.06
38253;BME280;24785;52.372;20.672;2023-04-23T13:28:33;100032.19;;;22.41;34.32
38253;BME280;24785;52.372;20.672;2023-04-23T13:38:35;100032.13;;;22.60;33.81
38253;BME280;24785;52.372;20.672;2023-04-23T13:48:36;100024.97;;;22.52;33.81
38253;BME280;24785;52.372;20.672;2023-04-23T13:58:37;100008.81;;;22.66;36.61
38253;BME280;24785;52.372;20.672;2023-04-23T14:08:42;99991.91;;;22.57;33.72
38253;BME280;24785;52.372;20.672;2023-04-23T14:18:43;99984.75;;;22.49;35.77
38253;BME280;24785;52.372;20.672;2023-04-23T14:28:44;99977.41;;;22.53;34.45
38253;BME280;24785;52.372;20.672;2023-04-23T14:38:46;99978.06;;;22.46;35.17
38253;BME280;24785;52.372;20.672;2023-04-23T14:48:47;99957.56;;;22.33;34.80
38253;BME280;24785;52.372;20.672;2023-04-23T14:58:48;99967.28;;;22.11;35.77
38253;BME280;24785;52.372;20.672;2023-04-23T15:08:48;99955.88;;;22.06;35.44
38253;BME280;24785;52.372;20.672;2023-04-23T15:18:49;99952.75;;;21.84;34.36
38253;BME280;24785;52.372;20.672;2023-04-23T15:28:50;99933.88;;;23.43;33.48
38253;BME280;24785;52.372;20.672;2023-04-23T15:38:51;99932.31;;;22.17;35.01
38253;BME280;24785;52.372;20.672;2023-04-23T15:48:52;99930.91;;;22.72;34.08
38253;BME280;24785;52.372;20.672;2023-04-23T15:58:53;99914.72;;;25.85;29.49
38253;BME280;24785;52.372;20.672;2023-04-23T16:08:54;99896.34;;;26.46;27.48
38253;BME280;24785;52.372;20.672;2023-04-23T16:18:55;99890.59;;;25.36;28.71
38253;BME280;24785;52.372;20.672;2023-04-23T16:28:56;99901.91;;;23.47;33.60
38253;BME280;24785;52.372;20.672;2023-04-23T16:38:57;99903.16;;;21.59;35.66
38253;BME280;24785;52.372;20.672;2023-04-23T16:48:58;99907.97;;;20.61;37.88
38253;BME280;24785;52.372;20.672;2023-04-23T16:58:59;99905.03;;;19.63;40.09
38253;BME280;24785;52.372;20.672;2023-04-23T17:09:01;99903.28;;;18.66;41.06
38253;BME280;24785;52.372;20.672;2023-04-23T17:19:04;99903.44;;;17.79;43.57
38253;BME280;24785;52.372;20.672;2023-04-23T17:29:05;99902.97;;;16.93;45.19
38253;BME280;24785;52.372;20.672;2023-04-23T17:39:06;99891.22;;;16.22;46.40
38253;BME280;24785;52.372;20.672;2023-04-23T17:49:07;99899.88;;;15.55;48.24
38253;BME280;24785;52.372;20.672;2023-04-23T17:59:10;99893.19;;;15.00;50.33
38253;BME280;24785;52.372;20.672;2023-04-23T18:09:11;99909.13;;;14.62;50.68
38253;BME280;24785;52.372;20.672;2023-04-23T18:19:11;99916.44;;;14.31;51.99
38253;BME280;24785;52.372;20.672;2023-04-23T18:29:12;99907.13;;;13.83;53.13
38253;BME280;24785;52.372;20.672;2023-04-23T18:39:13;99919.09;;;13.55;53.85
38253;BME280;24785;52.372;20.672;2023-04-23T18:59:27;99901.56;;;13.21;55.06
38253;BME280;24785;52.372;20.672;2023-04-23T19:09:28;99914.13;;;13.26;55.46
38253;BME280;24785;52.372;20.672;2023-04-23T19:19:29;99914.91;;;13.13;55.91
38253;BME280;24785;52.372;20.672;2023-04-23T19:29:31;99915.53;;;13.10;56.17
38253;BME280;24785;52.372;20.672;2023-04-23T19:39:32;99896.78;;;13.18;55.57
38253;BME280;24785;52.372;20.672;2023-04-23T19:49:33;99894.28;;;13.22;55.01
38253;BME280;24785;52.372;20.672;2023-04-23T19:59:34;99894.84;;;12.83;55.69
38253;BME280;24785;52.372;20.672;2023-04-23T20:09:35;99894.66;;;12.66;56.34
38253;BME280;24785;52.372;20.672;2023-04-23T20:19:35;99931.28;;;13.52;54.31
38253;BME280;24785;52.372;20.672;2023-04-23T20:29:37;99932.63;;;13.41;55.51
38253;BME280;24785;52.372;20.672;2023-04-23T20:39:38;99911.88;;;12.92;57.60
38253;BME280;24785;52.372;20.672;2023-04-23T20:49:39;99904.81;;;12.55;59.35
38253;BME280;24785;52.372;20.672;2023-04-23T20:59:40;99902.28;;;12.04;60.26
38253;BME280;24785;52.372;20.672;2023-04-23T21:09:41;99895.56;;;11.68;61.84
38253;BME280;24785;52.372;20.672;2023-04-23T21:19:42;99889.09;;;11.37;63.29
38253;BME280;24785;52.372;20.672;2023-04-23T21:29:43;99900.84;;;11.22;64.43
38253;BME280;24785;52.372;20.672;2023-04-23T21:39:45;99895.69;;;10.88;65.05
38253;BME280;24785;52.372;20.672;2023-04-23T21:49:46;99916.28;;;11.12;66.66
38253;BME280;24785;52.372;20.672;2023-04-23T21:59:49;99915.38;;;10.55;68.29
38253;BME280;24785;52.372;20.672;2023-04-23T22:09:49;99904.16;;;9.95;70.91
38253;BME280;24785;52.372;20.672;2023-04-23T22:19:50;99895.19;;;9.46;72.88
38253;BME280;24785;52.372;20.672;2023-04-23T22:29:51;99905.78;;;9.18;76.17
38253;BME280;24785;52.372;20.672;2023-04-23T22:39:52;99902.66;;;9.05;78.76
38253;BME280;24785;52.372;20.672;2023-04-23T22:49:53;99884.06;;;8.80;81.27
38253;BME280;24785;52.372;20.672;2023-04-23T22:59:54;99892.91;;;8.75;84.25
38253;BME280;24785;52.372;20.672;2023-04-23T23:09:55;99875.94;;;8.41;88.02
38253;BME280;24785;52.372;20.672;2023-04-23T23:19:56;99877.31;;;8.18;94.61
38253;BME280;24785;52.372;20.672;2023-04-23T23:29:56;99885.88;;;8.05;99.93
38253;BME280;24785;52.372;20.672;2023-04-23T23:39:57;99881.09;;;7.86;100.00
38253;BME280;24785;52.372;20.672;2023-04-23T23:49:58;99866.94;;;7.55;100.00
38253;BME280;24785;52.372;20.672;2023-04-23T23:59:59;99858.94;;;7.45;100.00
